createdAt,value
2023-03-18T17:20:20.759Z,100776.61
2023-03-18T17:21:24.378Z,100780.85
2023-03-18T17:22:29.900Z,100776.29
2023-03-18T17:32:11.164Z,100791.70
2023-03-18T17:33:29.114Z,100785.72
2023-03-18T17:34:32.254Z,100788.84
2023-03-18T17:35:36.114Z,100788.75
2023-03-18T17:36:40.862Z,100785.88
2023-03-18T17:37:44.021Z,100787.38
2023-03-18T17:38:48.166Z,100788.00
2023-03-18T17:39:51.525Z,100783.58
2023-03-18T17:40:56.343Z,100782.89
2023-03-18T17:41:59.610Z,100781.92
2023-03-18T17:43:01.831Z,100787.91
2023-03-18T17:44:27.205Z,100787.50
2023-03-18T17:45:39.297Z,100784.36
2023-03-18T17:46:43.746Z,100783.78
2023-03-18T17:47:45.969Z,100791.34
2023-03-18T17:48:50.128Z,100790.63
2023-03-18T17:49:53.494Z,100784.52
2023-03-18T17:52:18.212Z,100790.08
2023-03-18T17:53:47.899Z,100792.08
2023-03-18T17:54:52.097Z,100796.85
2023-03-18T17:55:56.238Z,100795.13
2023-03-18T17:57:00.122Z,100792.29
2023-03-18T17:58:07.685Z,100789.86
2023-03-18T18:00:29.171Z,100794.06
2023-03-18T18:01:32.668Z,100788.89
2023-03-18T18:02:35.905Z,100795.78
2023-03-18T18:07:18.788Z,100789.34
2023-03-18T18:08:23.078Z,100792.22
2023-03-18T18:09:28.948Z,100793.55
2023-03-18T18:10:36.365Z,100801.58
2023-03-18T18:11:41.611Z,100797.31
2023-03-18T18:12:48.593Z,100795.96
2023-03-18T18:13:56.099Z,100796.21
2023-03-18T18:15:02.504Z,100798.30
2023-03-18T18:16:05.101Z,100802.08
2023-03-18T18:17:16.250Z,100798.19
2023-03-18T18:19:33.403Z,100798.47
2023-03-18T18:20:35.624Z,100802.54
2023-03-18T18:21:38.270Z,100803.21
2023-03-18T18:22:44.234Z,100804.55
2023-03-18T18:23:47.889Z,100812.96
2023-03-18T18:24:51.303Z,100811.73
2023-03-18T18:25:55.418Z,100810.41
2023-03-18T18:27:00.843Z,100812.34
2023-03-18T18:28:11.264Z,100802.55
2023-03-18T18:29:16.949Z,100804.36
2023-03-18T18:30:27.441Z,100804.97
2023-03-18T18:31:29.503Z,100805.59
2023-03-18T18:32:35.189Z,100806.22
2023-03-18T18:33:40.735Z,100812.86
2023-03-18T18:34:43.566Z,100813.33
2023-03-18T18:35:45.729Z,100820.86
2023-03-18T18:36:50.110Z,100810.55
2023-03-18T18:37:52.943Z,100816.20
2023-03-18T18:38:59.903Z,100815.55
2023-03-18T18:40:09.293Z,100805.17
2023-03-18T18:41:11.634Z,100803.75
2023-03-18T18:42:13.796Z,100808.42
2023-03-18T18:43:16.457Z,100811.23
2023-03-18T18:44:18.611Z,100810.53
2023-03-18T18:45:23.040Z,100809.95
2023-03-18T18:46:26.685Z,100819.02
2023-03-18T18:47:29.356Z,100807.66
2023-03-18T18:49:45.140Z,100802.09
2023-03-18T18:50:50.073Z,100803.11
2023-03-18T18:51:55.543Z,100804.84
2023-03-18T18:52:59.163Z,100814.70
2023-03-18T18:54:02.727Z,100804.05
2023-03-18T18:55:06.619Z,100804.14
2023-03-18T18:56:25.381Z,100809.47
2023-03-18T18:57:30.279Z,100814.93
2023-03-18T18:58:32.726Z,100813.20
2023-03-18T18:59:35.775Z,100817.76
2023-03-18T19:00:39.291Z,100808.91
2023-03-18T19:01:45.426Z,100813.50
2023-03-18T19:02:56.983Z,100810.03
2023-03-18T19:04:04.097Z,100818.95
2023-03-18T19:05:09.151Z,100814.62
2023-03-18T19:06:35.448Z,100820.95
2023-03-18T19:07:43.449Z,100817.52
2023-03-18T19:08:50.746Z,100820.25
2023-03-18T19:09:57.460Z,100812.33
2023-03-18T19:11:03.650Z,100814.19
2023-03-18T19:12:12.950Z,100811.59
2023-03-18T19:13:18.973Z,100813.45
2023-03-18T19:14:26.320Z,100814.45
2023-03-18T19:15:28.539Z,100821.63
2023-03-18T19:16:33.681Z,100818.20
2023-03-18T19:17:37.700Z,100815.61
2023-03-18T19:18:42.093Z,100822.05
2023-03-18T19:19:49.028Z,100816.73
2023-03-18T19:20:53.362Z,100819.45
2023-03-18T19:21:58.549Z,100815.12
2023-03-18T19:23:08.070Z,100812.47
2023-03-18T19:25:31.362Z,100818.33
2023-03-18T19:27:45.963Z,100820.32
2023-03-18T19:29:04.831Z,100829.89
2023-03-18T19:30:00.639Z,100827.23
2023-03-18T19:31:04.820Z,100830.70
2023-03-18T19:32:18.999Z,100830.70
2023-03-18T19:33:21.642Z,100827.98
2023-03-18T19:34:24.881Z,100827.05
2023-03-18T19:35:27.111Z,100830.70
2023-03-18T19:36:33.108Z,100824.58
2023-03-18T19:37:38.140Z,100822.05
2023-03-18T19:38:40.404Z,100825.73
2023-03-18T19:39:44.561Z,100823.13
2023-03-18T19:40:49.543Z,100822.14
2023-03-18T19:41:51.964Z,100823.13
2023-03-18T19:42:54.569Z,100828.45
2023-03-18T19:45:14.773Z,100827.23
2023-03-18T19:46:25.734Z,100832.56
2023-03-18T19:47:30.233Z,100821.00
2023-03-18T19:48:32.529Z,100819.33
2023-03-18T19:49:36.077Z,100819.33
2023-03-18T19:50:40.506Z,100823.78
2023-03-18T19:51:43.490Z,100825.63
2023-03-18T19:52:46.216Z,100822.91
2023-03-18T19:53:48.777Z,100825.63
2023-03-18T19:54:52.444Z,100821.24
2023-03-18T19:55:55.098Z,100824.03
2023-03-18T19:57:00.494Z,100823.16
2023-03-18T19:58:03.326Z,100824.15
2023-03-18T19:59:09.514Z,100821.58
2023-03-18T20:01:34.786Z,100815.00
2023-03-18T20:02:37.846Z,100821.08
2023-03-18T20:03:40.274Z,100811.31
2023-03-18T20:04:43.371Z,100813.16
2023-03-18T20:05:47.116Z,100815.88
2023-03-18T20:06:49.414Z,100812.30
2023-03-18T20:07:52.124Z,100813.23
2023-03-18T20:08:54.436Z,100812.45
2023-03-18T20:09:56.932Z,100807.13
2023-03-18T20:10:59.577Z,100809.80
2023-03-18T20:12:04.392Z,100811.49
2023-03-18T20:13:10.883Z,100807.13
2023-03-18T20:14:31.679Z,100805.41
2023-03-18T20:15:35.310Z,100804.54
2023-03-18T20:16:37.741Z,100809.91
2023-03-18T20:17:43.243Z,100805.47
2023-03-18T20:18:45.761Z,100805.52
2023-03-18T20:19:47.925Z,100804.66
2023-03-18T20:20:50.976Z,100798.48
2023-03-18T20:21:53.201Z,100803.80
2023-03-18T20:23:03.080Z,100806.51
2023-03-18T20:24:08.934Z,100802.18
2023-03-18T20:26:29.944Z,100799.94
2023-03-18T20:27:32.765Z,100804.30
2023-03-18T20:28:36.518Z,100804.19
2023-03-18T20:29:38.685Z,100802.45
2023-03-18T20:30:47.443Z,100800.72
2023-03-18T20:31:54.344Z,100798.06
2023-03-18T20:32:59.916Z,100792.87
2023-03-18T20:34:07.628Z,100791.94
2023-03-18T20:35:10.433Z,100797.38
2023-03-18T20:36:19.210Z,100793.79
2023-03-18T20:38:57.360Z,100790.68
2023-03-18T20:41:19.581Z,100788.36
2023-03-18T20:42:24.066Z,100796.89
2023-03-18T20:43:29.127Z,100790.66
2023-03-18T20:44:46.455Z,100793.31
2023-03-18T20:45:52.622Z,100796.89
2023-03-18T20:46:55.318Z,100796.03
2023-03-18T20:47:57.620Z,100798.74
2023-03-18T20:48:59.860Z,100795.34
2023-03-18T20:50:03.062Z,100793.48
2023-03-18T20:52:44.823Z,100785.13
2023-03-18T20:53:53.391Z,100792.08
2023-03-18T20:54:57.703Z,100793.88
2023-03-18T20:56:01.397Z,100791.22
2023-03-18T20:57:04.037Z,100785.90
2023-03-18T20:58:10.341Z,100791.33
2023-03-18T20:59:12.576Z,100792.19
2023-03-18T21:00:17.644Z,100785.17
2023-03-18T21:01:20.353Z,100791.41
2023-03-18T21:02:35.142Z,100782.58
2023-03-18T21:03:37.631Z,100784.37
2023-03-18T21:04:40.961Z,100791.52
2023-03-18T21:05:43.059Z,100789.80
2023-03-18T21:06:45.297Z,100792.51
2023-03-18T21:07:48.139Z,100781.02
2023-03-18T21:08:50.306Z,100780.16
2023-03-18T21:09:54.858Z,100785.46
2023-03-18T21:11:01.493Z,100776.66
2023-03-18T21:12:05.523Z,100780.23
2023-03-18T21:14:42.197Z,100780.59
2023-03-18T21:15:46.549Z,100780.30
2023-03-18T21:16:49.777Z,100784.80
2023-03-18T21:17:57.972Z,100779.48
2023-03-18T21:19:03.461Z,100784.86
2023-03-18T21:21:40.805Z,100777.32
2023-03-18T21:22:47.901Z,100778.05
2023-03-18T21:23:52.917Z,100781.50
2023-03-18T21:25:01.905Z,100783.30
2023-03-18T21:26:12.145Z,100780.70
2023-03-18T21:27:23.841Z,100772.82
2023-03-18T21:29:48.698Z,100775.05
2023-03-18T21:30:58.397Z,100781.12
2023-03-18T21:32:01.217Z,100783.72
2023-03-18T21:34:19.647Z,100786.00
2023-03-18T21:35:25.310Z,100784.09
2023-03-18T21:36:29.143Z,100784.09
2023-03-18T21:37:31.841Z,100787.66
2023-03-18T21:38:33.969Z,100784.20
2023-03-18T21:39:36.064Z,100792.22
2023-03-18T21:40:44.875Z,100795.73
2023-03-18T21:41:48.754Z,100787.77
2023-03-18T21:42:54.160Z,100786.96
2023-03-18T21:43:58.169Z,100794.05
2023-03-18T21:45:00.985Z,100791.45
2023-03-18T21:46:07.368Z,100792.38
2023-03-18T21:47:17.847Z,100790.70
2023-03-18T21:48:20.781Z,100788.13
2023-03-18T21:49:33.886Z,100796.01
2023-03-18T21:50:40.658Z,100789.05
2023-03-18T21:51:44.751Z,100789.92
2023-03-18T21:52:48.187Z,100791.81
2023-03-18T21:53:54.674Z,100787.43
2023-03-18T21:55:10.307Z,100791.92
2023-03-18T21:56:13.819Z,100797.23
2023-03-18T21:57:19.135Z,100793.77
2023-03-18T21:58:27.114Z,100787.64
2023-03-18T21:59:32.968Z,100793.88
2023-03-18T22:00:35.502Z,100787.78
2023-03-18T22:01:40.899Z,100784.32
2023-03-18T22:02:48.794Z,100791.41
2023-03-18T22:03:51.120Z,100786.11
2023-03-18T22:05:01.676Z,100794.12
2023-03-18T22:06:05.721Z,100790.59
2023-03-18T22:07:19.811Z,100789.78
2023-03-18T22:08:26.073Z,100796.93
2023-03-18T22:09:29.927Z,100790.76
2023-03-18T22:10:33.356Z,100796.93
2023-03-18T22:11:37.818Z,100794.38
2023-03-18T22:12:43.405Z,100798.04
2023-03-18T22:13:52.584Z,100793.60
2023-03-18T22:14:56.020Z,100782.98
2023-03-18T22:16:00.447Z,100785.64
2023-03-18T22:18:45.664Z,100790.44
2023-03-18T22:19:58.649Z,100785.80
2023-03-18T22:21:01.183Z,100785.75
2023-03-18T22:22:07.564Z,100789.27
2023-03-18T22:23:19.225Z,100784.88
2023-03-18T22:24:21.479Z,100792.02
2023-03-18T22:25:35.832Z,100787.64
2023-03-18T22:26:43.437Z,100784.17
2023-03-18T22:27:47.270Z,100782.44
2023-03-18T22:28:52.629Z,100792.23
2023-03-18T22:29:57.948Z,100788.77
2023-03-18T22:31:05.270Z,100787.93
2023-03-18T22:32:27.413Z,100788.90
2023-03-18T22:33:33.571Z,100788.84
2023-03-18T22:34:35.732Z,100785.44
2023-03-18T22:35:38.119Z,100786.25
2023-03-18T22:36:41.421Z,100783.70
2023-03-18T22:37:54.412Z,100778.45
2023-03-18T22:38:58.832Z,100784.62
2023-03-18T22:40:02.082Z,100777.58
2023-03-18T22:41:04.533Z,100782.78
2023-03-18T22:42:10.275Z,100780.18
2023-03-18T22:43:33.201Z,100782.78
2023-03-18T22:44:35.839Z,100779.21
2023-03-18T22:45:40.687Z,100774.02
2023-03-18T22:46:49.125Z,100786.35
2023-03-18T22:49:15.069Z,100775.41
2023-03-18T22:50:18.471Z,100775.95
2023-03-18T22:51:28.138Z,100782.98
2023-03-18T22:52:32.231Z,100779.42
2023-03-18T22:54:53.059Z,100774.53
2023-03-18T22:56:17.294Z,100782.17
2023-03-18T22:57:26.559Z,100782.98
2023-03-18T22:58:30.963Z,100783.91
2023-03-18T22:59:33.999Z,100787.38
2023-03-18T23:00:41.145Z,100776.77
2023-03-18T23:01:44.686Z,100785.64
2023-03-18T23:02:50.406Z,100777.69
2023-03-18T23:03:54.424Z,100776.81
2023-03-18T23:04:56.851Z,100771.52
2023-03-18T23:06:16.370Z,100780.28
2023-03-18T23:07:31.940Z,100777.69
2023-03-18T23:08:34.472Z,100772.38
2023-03-18T23:09:50.410Z,100776.77
2023-03-18T23:10:47.877Z,100770.55
2023-03-18T23:11:49.996Z,100770.55
2023-03-18T23:12:53.042Z,100769.67
2023-03-18T23:13:56.682Z,100764.33
2023-03-18T23:15:01.700Z,100766.11
2023-03-18T23:16:17.290Z,100761.67
2023-03-18T23:17:26.503Z,100762.59
2023-03-18T23:18:33.961Z,100761.67
2023-03-18T23:19:38.691Z,100763.41
2023-03-18T23:20:45.691Z,100759.84
2023-03-18T23:21:47.848Z,100754.53
2023-03-18T23:22:50.031Z,100757.19
2023-03-18T23:23:53.130Z,100750.91
2023-03-18T23:25:00.114Z,100757.95
2023-03-18T23:26:02.551Z,100756.16
2023-03-18T23:27:10.324Z,100754.29
2023-03-18T23:28:18.046Z,100752.50
2023-03-18T23:29:20.519Z,100755.16
2023-03-18T23:30:24.802Z,100756.02
2023-03-18T23:31:28.441Z,100760.46
2023-03-18T23:32:33.670Z,100755.16
2023-03-18T23:33:35.864Z,100754.29
2023-03-18T23:34:42.596Z,100752.50
2023-03-18T23:35:45.595Z,100743.68
2023-03-18T23:36:52.624Z,100743.68
2023-03-18T23:38:04.135Z,100748.93
2023-03-18T23:39:06.822Z,100738.37
2023-03-18T23:40:11.704Z,100739.33
2023-03-18T23:41:14.210Z,100737.55
2023-03-18T23:42:20.233Z,100736.59
2023-03-18T23:43:29.562Z,100729.50
2023-03-18T23:44:34.770Z,100733.08
2023-03-18T23:45:39.218Z,100741.84
2023-03-18T23:46:49.326Z,100730.38
2023-03-18T23:47:54.545Z,100738.27
2023-03-18T23:49:06.169Z,100734.70
2023-03-18T23:50:10.695Z,100728.47
2023-03-18T23:51:14.689Z,100734.59
2023-03-18T23:52:16.798Z,100727.55
2023-03-18T23:53:19.516Z,100733.78
2023-03-18T23:54:22.570Z,100731.02
2023-03-18T23:55:45.648Z,100717.87
2023-03-18T23:56:31.949Z,100724.91
2023-03-18T23:57:43.763Z,100732.86
2023-03-18T23:58:46.047Z,100724.95
2023-03-18T23:59:48.734Z,100733.73
